sensor_id;sensor_type;location;lat;lon;timestamp;pressure;altitude;pressure_sealevel;temperature;humidity
60974;BME280;46846;51.528;5.076;2023-04-23T00:00:12;100214.75;;;9.43;74.11
60974;BME280;46846;51.528;5.076;2023-04-23T00:02:38;100219.13;;;9.44;74.22
60974;BME280;46846;51.528;5.076;2023-04-23T00:05:05;100215.69;;;9.42;74.29
60974;BME280;46846;51.528;5.076;2023-04-23T00:07:31;100206.94;;;9.40;74.13
60974;BME280;46846;51.528;5.076;2023-04-23T00:09:57;100207.81;;;9.39;74.28
60974;BME280;46846;51.528;5.076;2023-04-23T00:12:23;100207.03;;;9.37;74.26
60974;BME280;46846;51.528;5.076;2023-04-23T00:14:49;100209.75;;;9.35;74.36
60974;BME280;46846;51.528;5.076;2023-04-23T00:17:14;100200.94;;;9.35;74.40
60974;BME280;46846;51.528;5.076;2023-04-23T00:19:39;100189.50;;;9.33;74.42
60974;BME280;46846;51.528;5.076;2023-04-23T00:22:06;100198.38;;;9.32;74.23
60974;BME280;46846;51.528;5.076;2023-04-23T00:24:31;100204.69;;;9.29;74.45
60974;BME280;46846;51.528;5.076;2023-04-23T00:26:58;100206.53;;;9.27;74.48
60974;BME280;46846;51.528;5.076;2023-04-23T00:29:23;100203.03;;;9.26;74.29
60974;BME280;46846;51.528;5.076;2023-04-23T00:31:48;100201.28;;;9.25;74.28
60974;BME280;46846;51.528;5.076;2023-04-23T00:34:14;100204.00;;;9.24;74.36
60974;BME280;46846;51.528;5.076;2023-04-23T00:36:39;100194.31;;;9.23;74.23
60974;BME280;46846;51.528;5.076;2023-04-23T00:39:04;100189.00;;;9.23;74.33
60974;BME280;46846;51.528;5.076;2023-04-23T00:41:30;100188.22;;;9.21;74.19
60974;BME280;46846;51.528;5.076;2023-04-23T00:43:55;100184.72;;;9.19;74.30
60974;BME280;46846;51.528;5.076;2023-04-23T00:46:22;100181.22;;;9.18;74.44
60974;BME280;46846;51.528;5.076;2023-04-23T00:48:48;100177.81;;;9.14;74.38
60974;BME280;46846;51.528;5.076;2023-04-23T00:51:14;100171.63;;;9.14;74.40
60974;BME280;46846;51.528;5.076;2023-04-23T00:53:40;100177.00;;;9.12;74.36
60974;BME280;46846;51.528;5.076;2023-04-23T00:56:05;100165.53;;;9.12;74.37
60974;BME280;46846;51.528;5.076;2023-04-23T00:58:32;100166.47;;;9.11;74.31
60974;BME280;46846;51.528;5.076;2023-04-23T01:00:58;100161.22;;;9.09;74.57
60974;BME280;46846;51.528;5.076;2023-04-23T01:03:24;100158.56;;;9.09;74.47
60974;BME280;46846;51.528;5.076;2023-04-23T01:05:50;100170.09;;;9.08;74.27
60974;BME280;46846;51.528;5.076;2023-04-23T01:08:16;100167.50;;;9.07;74.40
60974;BME280;46846;51.528;5.076;2023-04-23T01:10:43;100163.13;;;9.06;74.30
60974;BME280;46846;51.528;5.076;2023-04-23T01:13:08;100156.03;;;9.06;74.28
60974;BME280;46846;51.528;5.076;2023-04-23T01:15:34;100153.44;;;9.05;74.10
60974;BME280;46846;51.528;5.076;2023-04-23T01:17:59;100156.13;;;9.03;74.09
60974;BME280;46846;51.528;5.076;2023-04-23T01:20:24;100149.97;;;9.02;73.96
60974;BME280;46846;51.528;5.076;2023-04-23T01:22:50;100149.16;;;9.00;74.24
60974;BME280;46846;51.528;5.076;2023-04-23T01:25:15;100151.88;;;8.99;74.07
60974;BME280;46846;51.528;5.076;2023-04-23T01:27:41;100147.47;;;8.98;74.40
60974;BME280;46846;51.528;5.076;2023-04-23T01:30:07;100153.72;;;8.97;74.21
60974;BME280;46846;51.528;5.076;2023-04-23T01:32:32;100153.72;;;8.97;74.34
60974;BME280;46846;51.528;5.076;2023-04-23T01:34:58;100153.81;;;8.95;74.18
60974;BME280;46846;51.528;5.076;2023-04-23T01:37:23;100149.34;;;8.96;74.13
60974;BME280;46846;51.528;5.076;2023-04-23T01:39:49;100140.56;;;8.94;74.17
60974;BME280;46846;51.528;5.076;2023-04-23T01:42:15;100143.22;;;8.94;74.10
60974;BME280;46846;51.528;5.076;2023-04-23T01:44:40;100146.81;;;8.93;74.14
60974;BME280;46846;51.528;5.076;2023-04-23T01:47:06;100137.97;;;8.92;74.21
60974;BME280;46846;51.528;5.076;2023-04-23T01:49:31;100153.09;;;8.90;74.33
60974;BME280;46846;51.528;5.076;2023-04-23T01:51:57;100142.53;;;8.88;74.25
60974;BME280;46846;51.528;5.076;2023-04-23T01:54:22;100139.88;;;8.88;74.17
60974;BME280;46846;51.528;5.076;2023-04-23T01:56:47;100137.22;;;8.88;74.17
60974;BME280;46846;51.528;5.076;2023-04-23T01:59:13;100146.13;;;8.87;74.16
60974;BME280;46846;51.528;5.076;2023-04-23T02:01:44;100147.97;;;8.85;74.09
60974;BME280;46846;51.528;5.076;2023-04-23T02:04:10;100145.31;;;8.85;74.28
60974;BME280;46846;51.528;5.076;2023-04-23T02:06:36;100149.75;;;8.85;74.34
60974;BME280;46846;51.528;5.076;2023-04-23T02:09:01;100139.94;;;8.87;74.22
60974;BME280;46846;51.528;5.076;2023-04-23T02:11:26;100145.31;;;8.85;74.06
60974;BME280;46846;51.528;5.076;2023-04-23T02:13:52;100145.41;;;8.82;74.22
60974;BME280;46846;51.528;5.076;2023-04-23T02:16:17;100135.75;;;8.81;74.14
60974;BME280;46846;51.528;5.076;2023-04-23T02:18:43;100141.00;;;8.83;74.17
60974;BME280;46846;51.528;5.076;2023-04-23T02:21:09;100140.19;;;8.81;74.04
60974;BME280;46846;51.528;5.076;2023-04-23T02:23:35;100136.72;;;8.79;74.19
60974;BME280;46846;51.528;5.076;2023-04-23T02:26:00;100148.22;;;8.79;74.04
60974;BME280;46846;51.528;5.076;2023-04-23T02:28:25;100145.41;;;8.82;74.19
60974;BME280;46846;51.528;5.076;2023-04-23T02:30:50;100147.28;;;8.80;74.18
60974;BME280;46846;51.528;5.076;2023-04-23T02:33:16;100137.66;;;8.78;74.07
60974;BME280;46846;51.528;5.076;2023-04-23T02:35:42;100138.56;;;8.77;74.23
60974;BME280;46846;51.528;5.076;2023-04-23T02:38:07;100135.06;;;8.76;74.19
60974;BME280;46846;51.528;5.076;2023-04-23T02:40:32;100128.94;;;8.74;74.06
60974;BME280;46846;51.528;5.076;2023-04-23T02:42:57;100120.19;;;8.72;74.29
60974;BME280;46846;51.528;5.076;2023-04-23T02:45:23;100130.78;;;8.72;74.44
60974;BME280;46846;51.528;5.076;2023-04-23T02:47:48;100133.50;;;8.70;74.24
60974;BME280;46846;51.528;5.076;2023-04-23T02:50:13;100126.47;;;8.69;74.08
60974;BME280;46846;51.528;5.076;2023-04-23T02:52:39;100122.03;;;8.70;74.23
60974;BME280;46846;51.528;5.076;2023-04-23T02:55:04;100121.16;;;8.69;74.33
60974;BME280;46846;51.528;5.076;2023-04-23T02:57:31;100122.88;;;8.70;74.12
60974;BME280;46846;51.528;5.076;2023-04-23T02:59:56;100128.19;;;8.70;73.96
60974;BME280;46846;51.528;5.076;2023-04-23T03:02:21;100122.13;;;8.67;74.42
60974;BME280;46846;51.528;5.076;2023-04-23T03:04:47;100116.84;;;8.67;74.26
60974;BME280;46846;51.528;5.076;2023-04-23T03:07:12;100113.25;;;8.68;74.27
60974;BME280;46846;51.528;5.076;2023-04-23T03:09:37;100120.38;;;8.67;73.82
60974;BME280;46846;51.528;5.076;2023-04-23T03:12:03;100116.00;;;8.66;74.12
60974;BME280;46846;51.528;5.076;2023-04-23T03:14:28;100116.00;;;8.66;74.32
60974;BME280;46846;51.528;5.076;2023-04-23T03:16:53;100115.09;;;8.66;74.18
60974;BME280;46846;51.528;5.076;2023-04-23T03:19:18;100108.03;;;8.66;74.36
60974;BME280;46846;51.528;5.076;2023-04-23T03:21:44;100116.84;;;8.67;74.19
60974;BME280;46846;51.528;5.076;2023-04-23T03:24:11;100114.25;;;8.65;74.39
60974;BME280;46846;51.528;5.076;2023-04-23T03:26:36;100110.69;;;8.66;74.20
60974;BME280;46846;51.528;5.076;2023-04-23T03:29:02;100116.03;;;8.65;74.34
60974;BME280;46846;51.528;5.076;2023-04-23T03:31:27;100116.97;;;8.64;74.09
60974;BME280;46846;51.528;5.076;2023-04-23T03:33:52;100115.16;;;8.64;73.85
60974;BME280;46846;51.528;5.076;2023-04-23T03:36:17;100112.59;;;8.63;74.02
60974;BME280;46846;51.528;5.076;2023-04-23T03:38:43;100104.56;;;8.64;74.08
60974;BME280;46846;51.528;5.076;2023-04-23T03:41:08;100109.06;;;8.62;74.16
60974;BME280;46846;51.528;5.076;2023-04-23T03:43:33;100110.03;;;8.59;74.20
60974;BME280;46846;51.528;5.076;2023-04-23T03:45:59;100111.84;;;8.59;74.28
60974;BME280;46846;51.528;5.076;2023-04-23T03:48:24;100122.44;;;8.59;74.26
60974;BME280;46846;51.528;5.076;2023-04-23T03:50:50;100108.31;;;8.58;73.90
60974;BME280;46846;51.528;5.076;2023-04-23T03:53:15;100117.19;;;8.57;74.22
60974;BME280;46846;51.528;5.076;2023-04-23T03:55:41;100110.97;;;8.58;73.88
60974;BME280;46846;51.528;5.076;2023-04-23T03:58:07;100108.34;;;8.57;74.31
60974;BME280;46846;51.528;5.076;2023-04-23T04:00:33;100112.81;;;8.56;74.15
60974;BME280;46846;51.528;5.076;2023-04-23T04:02:58;100118.22;;;8.53;74.29
60974;BME280;46846;51.528;5.076;2023-04-23T04:05:26;100117.31;;;8.54;74.23
60974;BME280;46846;51.528;5.076;2023-04-23T04:07:51;100119.16;;;8.52;74.26
60974;BME280;46846;51.528;5.076;2023-04-23T04:10:16;100115.56;;;8.53;73.99
60974;BME280;46846;51.528;5.076;2023-04-23T04:12:41;100117.41;;;8.51;74.21
60974;BME280;46846;51.528;5.076;2023-04-23T04:15:09;100117.41;;;8.51;74.32
60974;BME280;46846;51.528;5.076;2023-04-23T04:17:34;100120.97;;;8.50;74.21
60974;BME280;46846;51.528;5.076;2023-04-23T04:19:59;100113.00;;;8.50;74.02
60974;BME280;46846;51.528;5.076;2023-04-23T04:22:25;100112.16;;;8.50;74.20
60974;BME280;46846;51.528;5.076;2023-04-23T04:24:50;100110.41;;;8.48;74.16
60974;BME280;46846;51.528;5.076;2023-04-23T04:27:16;100108.69;;;8.47;74.45
60974;BME280;46846;51.528;5.076;2023-04-23T04:29:42;100113.19;;;8.45;74.51
60974;BME280;46846;51.528;5.076;2023-04-23T04:32:07;100108.75;;;8.46;74.26
60974;BME280;46846;51.528;5.076;2023-04-23T04:34:32;100103.56;;;8.43;74.50
60974;BME280;46846;51.528;5.076;2023-04-23T04:37:00;100107.09;;;8.43;74.32
60974;BME280;46846;51.528;5.076;2023-04-23T04:39:25;100110.66;;;8.42;74.18
60974;BME280;46846;51.528;5.076;2023-04-23T04:41:50;100111.63;;;8.40;74.22
60974;BME280;46846;51.528;5.076;2023-04-23T04:44:16;100112.47;;;8.40;74.26
60974;BME280;46846;51.528;5.076;2023-04-23T04:46:41;100109.84;;;8.40;74.46
60974;BME280;46846;51.528;5.076;2023-04-23T04:49:07;100117.88;;;8.39;74.43
60974;BME280;46846;51.528;5.076;2023-04-23T04:51:33;100117.88;;;8.39;74.34
60974;BME280;46846;51.528;5.076;2023-04-23T04:53:58;100120.50;;;8.39;74.21
60974;BME280;46846;51.528;5.076;2023-04-23T04:56:23;100118.75;;;8.38;74.53
60974;BME280;46846;51.528;5.076;2023-04-23T04:58:49;100119.81;;;8.33;74.48
60974;BME280;46846;51.528;5.076;2023-04-23T05:01:15;100114.38;;;8.37;74.70
60974;BME280;46846;51.528;5.076;2023-04-23T05:03:40;100116.19;;;8.36;74.39
60974;BME280;46846;51.528;5.076;2023-04-23T05:06:05;100109.16;;;8.35;74.40
60974;BME280;46846;51.528;5.076;2023-04-23T05:08:30;100114.50;;;8.33;74.26
60974;BME280;46846;51.528;5.076;2023-04-23T05:10:56;100112.69;;;8.34;74.58
60974;BME280;46846;51.528;5.076;2023-04-23T05:13:21;100108.31;;;8.33;74.47
60974;BME280;46846;51.528;5.076;2023-04-23T05:15:46;100114.56;;;8.32;74.25
60974;BME280;46846;51.528;5.076;2023-04-23T05:18:12;100117.19;;;8.32;74.37
60974;BME280;46846;51.528;5.076;2023-04-23T05:20:37;100109.31;;;8.30;74.09
60974;BME280;46846;51.528;5.076;2023-04-23T05:23:02;100109.31;;;8.30;74.51
60974;BME280;46846;51.528;5.076;2023-04-23T05:25:31;100118.19;;;8.29;74.32
60974;BME280;46846;51.528;5.076;2023-04-23T05:27:56;100119.91;;;8.30;74.51
60974;BME280;46846;51.528;5.076;2023-04-23T05:30:21;100124.34;;;8.30;74.20
60974;BME280;46846;51.528;5.076;2023-04-23T05:32:47;100121.88;;;8.25;74.40
60974;BME280;46846;51.528;5.076;2023-04-23T05:35:12;100118.31;;;8.26;74.35
60974;BME280;46846;51.528;5.076;2023-04-23T05:37:37;100112.06;;;8.27;74.27
60974;BME280;46846;51.528;5.076;2023-04-23T05:40:02;100112.25;;;8.23;74.60
60974;BME280;46846;51.528;5.076;2023-04-23T05:42:30;100116.56;;;8.25;74.11
60974;BME280;46846;51.528;5.076;2023-04-23T05:44:56;100111.28;;;8.25;74.19
60974;BME280;46846;51.528;5.076;2023-04-23T05:47:21;100104.00;;;8.30;74.36
60974;BME280;46846;51.528;5.076;2023-04-23T05:49:46;100109.56;;;8.24;74.51
60974;BME280;46846;51.528;5.076;2023-04-23T05:52:11;100108.56;;;8.27;74.29
60974;BME280;46846;51.528;5.076;2023-04-23T05:54:37;100111.19;;;8.27;74.48
60974;BME280;46846;51.528;5.076;2023-04-23T05:57:02;100107.69;;;8.26;74.50
60974;BME280;46846;51.528;5.076;2023-04-23T05:59:29;100107.56;;;8.29;74.38
60974;BME280;46846;51.528;5.076;2023-04-23T06:01:54;100105.84;;;8.28;74.72
60974;BME280;46846;51.528;5.076;2023-04-23T06:04:19;100103.16;;;8.30;74.77
60974;BME280;46846;51.528;5.076;2023-04-23T06:06:45;100109.22;;;8.33;74.92
60974;BME280;46846;51.528;5.076;2023-04-23T06:09:10;100105.63;;;8.34;74.69
60974;BME280;46846;51.528;5.076;2023-04-23T06:11:35;100098.59;;;8.33;74.50
60974;BME280;46846;51.528;5.076;2023-04-23T06:14:03;100088.97;;;8.31;75.09
60974;BME280;46846;51.528;5.076;2023-04-23T06:16:29;100095.06;;;8.33;74.92
60974;BME280;46846;51.528;5.076;2023-04-23T06:18:54;100091.44;;;8.35;74.54
60974;BME280;46846;51.528;5.076;2023-04-23T06:21:23;100088.69;;;8.39;74.68
60974;BME280;46846;51.528;5.076;2023-04-23T06:23:48;100089.50;;;8.41;74.20
60974;BME280;46846;51.528;5.076;2023-04-23T06:26:14;100089.44;;;8.42;74.79
60974;BME280;46846;51.528;5.076;2023-04-23T06:28:40;100092.94;;;8.43;74.37
60974;BME280;46846;51.528;5.076;2023-04-23T06:31:06;100084.94;;;8.44;74.70
60974;BME280;46846;51.528;5.076;2023-04-23T06:33:32;100081.41;;;8.44;74.95
60974;BME280;46846;51.528;5.076;2023-04-23T06:35:58;100083.97;;;8.47;74.80
60974;BME280;46846;51.528;5.076;2023-04-23T06:38:23;100082.03;;;8.52;75.17
60974;BME280;46846;51.528;5.076;2023-04-23T06:40:49;100081.03;;;8.55;74.71
60974;BME280;46846;51.528;5.076;2023-04-23T06:43:14;100078.44;;;8.53;75.10
60974;BME280;46846;51.528;5.076;2023-04-23T06:45:39;100088.03;;;8.57;75.19
60974;BME280;46846;51.528;5.076;2023-04-23T06:48:05;100085.19;;;8.62;75.29
60974;BME280;46846;51.528;5.076;2023-04-23T06:50:30;100086.06;;;8.63;75.40
60974;BME280;46846;51.528;5.076;2023-04-23T06:52:55;100078.84;;;8.66;75.40
60974;BME280;46846;51.528;5.076;2023-04-23T06:55:21;100073.41;;;8.69;75.69
60974;BME280;46846;51.528;5.076;2023-04-23T06:57:50;100078.53;;;8.74;75.57
60974;BME280;46846;51.528;5.076;2023-04-23T07:00:15;100068.63;;;8.79;75.70
60974;BME280;46846;51.528;5.076;2023-04-23T07:02:41;100075.66;;;8.80;75.82
60974;BME280;46846;51.528;5.076;2023-04-23T07:05:06;100079.00;;;8.85;75.75
60974;BME280;46846;51.528;5.076;2023-04-23T07:07:31;100069.03;;;8.91;75.91
60974;BME280;46846;51.528;5.076;2023-04-23T07:09:57;100060.97;;;8.94;75.84
60974;BME280;46846;51.528;5.076;2023-04-23T07:12:22;100066.97;;;8.99;75.89
60974;BME280;46846;51.528;5.076;2023-04-23T07:14:47;100069.34;;;9.05;76.06
60974;BME280;46846;51.528;5.076;2023-04-23T07:17:12;100064.69;;;9.12;76.04
60974;BME280;46846;51.528;5.076;2023-04-23T07:19:38;100053.81;;;9.18;76.26
60974;BME280;46846;51.528;5.076;2023-04-23T07:22:03;100049.09;;;9.25;76.13
60974;BME280;46846;51.528;5.076;2023-04-23T07:24:29;100053.44;;;9.27;76.22
60974;BME280;46846;51.528;5.076;2023-04-23T07:26:54;100056.75;;;9.33;76.17
60974;BME280;46846;51.528;5.076;2023-04-23T07:29:19;100046.78;;;9.38;76.39
60974;BME280;46846;51.528;5.076;2023-04-23T07:31:45;100048.34;;;9.43;76.30
60974;BME280;46846;51.528;5.076;2023-04-23T07:34:10;100048.06;;;9.50;76.49
60974;BME280;46846;51.528;5.076;2023-04-23T07:36:36;100046.88;;;9.57;76.45
60974;BME280;46846;51.528;5.076;2023-04-23T07:39:01;100047.53;;;9.62;76.68
60974;BME280;46846;51.528;5.076;2023-04-23T07:41:27;100057.91;;;9.68;76.31
60974;BME280;46846;51.528;5.076;2023-04-23T07:43:52;100046.09;;;9.76;76.44
60974;BME280;46846;51.528;5.076;2023-04-23T07:46:17;100048.47;;;9.82;76.55
60974;BME280;46846;51.528;5.076;2023-04-23T07:48:44;100039.31;;;9.89;76.43
60974;BME280;46846;51.528;5.076;2023-04-23T07:51:09;100042.59;;;9.94;76.33
60974;BME280;46846;51.528;5.076;2023-04-23T07:53:34;100048.50;;;10.01;76.32
60974;BME280;46846;51.528;5.076;2023-04-23T07:55:59;100046.38;;;10.09;76.46
60974;BME280;46846;51.528;5.076;2023-04-23T07:58:25;100046.88;;;10.18;76.38
60974;BME280;46846;51.528;5.076;2023-04-23T08:00:50;100049.09;;;10.27;76.00
60974;BME280;46846;51.528;5.076;2023-04-23T08:03:15;100037.31;;;10.33;76.20
60974;BME280;46846;51.528;5.076;2023-04-23T08:05:41;100041.31;;;10.43;76.18
60974;BME280;46846;51.528;5.076;2023-04-23T08:08:06;100033.13;;;10.48;76.24
60974;BME280;46846;51.528;5.076;2023-04-23T08:10:32;100032.63;;;10.59;76.14
60974;BME280;46846;51.528;5.076;2023-04-23T08:12:58;100025.13;;;10.67;76.16
60974;BME280;46846;51.528;5.076;2023-04-23T08:15:23;100022.91;;;10.77;76.25
60974;BME280;46846;51.528;5.076;2023-04-23T08:17:48;100024.16;;;10.87;76.05
60974;BME280;46846;51.528;5.076;2023-04-23T08:20:13;100012.28;;;10.94;75.97
60974;BME280;46846;51.528;5.076;2023-04-23T08:22:39;100020.84;;;11.01;75.93
60974;BME280;46846;51.528;5.076;2023-04-23T08:25:04;100016.00;;;11.10;76.14
60974;BME280;46846;51.528;5.076;2023-04-23T08:27:30;100014.75;;;11.17;76.16
60974;BME280;46846;51.528;5.076;2023-04-23T08:29:55;100007.22;;;11.25;76.00
60974;BME280;46846;51.528;5.076;2023-04-23T08:32:20;100013.03;;;11.33;75.87
60974;BME280;46846;51.528;5.076;2023-04-23T08:34:46;100010.81;;;11.42;76.02
60974;BME280;46846;51.528;5.076;2023-04-23T08:37:11;100015.66;;;11.51;75.71
60974;BME280;46846;51.528;5.076;2023-04-23T08:39:36;100015.13;;;11.62;75.46
60974;BME280;46846;51.528;5.076;2023-04-23T08:42:09;100016.44;;;11.71;75.17
60974;BME280;46846;51.528;5.076;2023-04-23T08:44:35;100012.50;;;11.78;75.56
60974;BME280;46846;51.528;5.076;2023-04-23T08:47:02;100009.59;;;11.83;75.30
60974;BME280;46846;51.528;5.076;2023-04-23T08:49:28;100010.13;;;11.89;75.46
60974;BME280;46846;51.528;5.076;2023-04-23T08:51:57;100010.50;;;11.99;75.71
60974;BME280;46846;51.528;5.076;2023-04-23T08:54:26;100015.28;;;12.10;75.13
60974;BME280;46846;51.528;5.076;2023-04-23T08:56:53;100015.72;;;12.19;75.17
60974;BME280;46846;51.528;5.076;2023-04-23T08:59:19;100017.09;;;12.26;75.17
60974;BME280;46846;51.528;5.076;2023-04-23T09:01:47;100015.56;;;12.38;74.96
60974;BME280;46846;51.528;5.076;2023-04-23T09:04:12;100019.53;;;12.47;74.84
60974;BME280;46846;51.528;5.076;2023-04-23T09:06:40;100011.03;;;12.56;75.05
60974;BME280;46846;51.528;5.076;2023-04-23T09:09:06;100013.34;;;12.62;75.25
60974;BME280;46846;51.528;5.076;2023-04-23T09:11:32;100013.78;;;12.70;74.91
60974;BME280;46846;51.528;5.076;2023-04-23T09:13:58;100006.28;;;12.77;75.19
60974;BME280;46846;51.528;5.076;2023-04-23T09:16:24;99998.78;;;12.84;74.77
60974;BME280;46846;51.528;5.076;2023-04-23T09:18:50;100002.81;;;12.91;74.74
60974;BME280;46846;51.528;5.076;2023-04-23T09:21:16;99995.41;;;12.96;75.14
60974;BME280;46846;51.528;5.076;2023-04-23T09:23:42;99995.75;;;13.06;74.69
60974;BME280;46846;51.528;5.076;2023-04-23T09:26:07;99997.19;;;13.12;74.69
60974;BME280;46846;51.528;5.076;2023-04-23T09:28:35;99999.66;;;13.15;74.63
60974;BME280;46846;51.528;5.076;2023-04-23T09:31:03;99998.25;;;13.24;74.71
60974;BME280;46846;51.528;5.076;2023-04-23T09:33:29;99990.06;;;13.27;74.14
60974;BME280;46846;51.528;5.076;2023-04-23T09:35:56;99993.25;;;13.34;73.89
60974;BME280;46846;51.528;5.076;2023-04-23T09:38:22;99990.09;;;13.42;74.29
60974;BME280;46846;51.528;5.076;2023-04-23T09:40:47;99980.97;;;13.46;74.32
60974;BME280;46846;51.528;5.076;2023-04-23T09:43:14;99985.09;;;13.51;73.98
60974;BME280;46846;51.528;5.076;2023-04-23T09:45:48;99985.75;;;13.55;73.96
60974;BME280;46846;51.528;5.076;2023-04-23T09:48:14;99986.22;;;13.62;74.13
60974;BME280;46846;51.528;5.076;2023-04-23T09:50:39;99979.69;;;13.67;74.31
60974;BME280;46846;51.528;5.076;2023-04-23T09:53:05;99981.97;;;13.74;73.89
60974;BME280;46846;51.528;5.076;2023-04-23T09:55:32;99975.47;;;13.78;73.86
60974;BME280;46846;51.528;5.076;2023-04-23T09:58:02;99981.50;;;13.81;74.00
60974;BME280;46846;51.528;5.076;2023-04-23T10:00:31;99974.22;;;13.84;73.76
60974;BME280;46846;51.528;5.076;2023-04-23T10:02:57;99976.72;;;13.87;73.88
60974;BME280;46846;51.528;5.076;2023-04-23T10:05:23;99974.72;;;13.90;73.14
60974;BME280;46846;51.528;5.076;2023-04-23T10:07:48;99971.75;;;13.95;73.38
60974;BME280;46846;51.528;5.076;2023-04-23T10:10:14;99963.44;;;14.00;73.41
60974;BME280;46846;51.528;5.076;2023-04-23T10:12:40;99963.06;;;14.06;72.98
60974;BME280;46846;51.528;5.076;2023-04-23T10:15:06;99954.81;;;14.09;73.08
60974;BME280;46846;51.528;5.076;2023-04-23T10:17:33;99958.81;;;14.16;73.18
60974;BME280;46846;51.528;5.076;2023-04-23T10:19:58;99952.50;;;14.17;73.24
60974;BME280;46846;51.528;5.076;2023-04-23T10:22:25;99949.66;;;14.20;73.33
60974;BME280;46846;51.528;5.076;2023-04-23T10:24:52;99953.84;;;14.25;73.01
60974;BME280;46846;51.528;5.076;2023-04-23T10:27:21;99955.47;;;14.27;73.13
60974;BME280;46846;51.528;5.076;2023-04-23T10:29:46;99949.94;;;14.30;72.78
60974;BME280;46846;51.528;5.076;2023-04-23T10:32:12;99948.00;;;14.32;72.45
60974;BME280;46846;51.528;5.076;2023-04-23T10:34:38;99945.91;;;14.38;72.26
60974;BME280;46846;51.528;5.076;2023-04-23T10:37:03;99938.41;;;14.43;72.45
60974;BME280;46846;51.528;5.076;2023-04-23T10:39:31;99937.25;;;14.47;72.72
60974;BME280;46846;51.528;5.076;2023-04-23T10:41:56;99934.38;;;14.50;72.37
60974;BME280;46846;51.528;5.076;2023-04-23T10:44:30;99931.50;;;14.53;72.76
60974;BME280;46846;51.528;5.076;2023-04-23T10:46:56;99930.53;;;14.54;72.48
60974;BME280;46846;51.528;5.076;2023-04-23T10:49:28;99924.97;;;14.57;71.74
60974;BME280;46846;51.528;5.076;2023-04-23T10:51:57;99917.91;;;14.56;71.21
60974;BME280;46846;51.528;5.076;2023-04-23T10:54:24;99920.19;;;14.62;71.86
60974;BME280;46846;51.528;5.076;2023-04-23T10:56:56;99915.56;;;14.65;71.09
60974;BME280;46846;51.528;5.076;2023-04-23T10:59:22;99916.31;;;14.67;67.44
60974;BME280;46846;51.528;5.076;2023-04-23T11:01:50;99909.81;;;14.71;71.55
60974;BME280;46846;51.528;5.076;2023-04-23T11:04:20;99907.06;;;14.72;71.50
60974;BME280;46846;51.528;5.076;2023-04-23T11:09:27;99910.41;;;14.76;71.85
60974;BME280;46846;51.528;5.076;2023-04-23T11:11:53;99902.25;;;14.77;71.85
60974;BME280;46846;51.528;5.076;2023-04-23T11:14:18;99895.09;;;14.78;71.81
60974;BME280;46846;51.528;5.076;2023-04-23T11:16:44;99893.16;;;14.80;71.56
60974;BME280;46846;51.528;5.076;2023-04-23T11:19:09;99893.94;;;14.82;71.47
60974;BME280;46846;51.528;5.076;2023-04-23T11:24:23;99881.19;;;14.86;71.49
60974;BME280;46846;51.528;5.076;2023-04-23T11:26:52;99876.47;;;14.89;71.68
60974;BME280;46846;51.528;5.076;2023-04-23T11:29:20;99867.34;;;14.92;71.56
60974;BME280;46846;51.528;5.076;2023-04-23T11:31:47;99864.59;;;14.94;71.53
60974;BME280;46846;51.528;5.076;2023-04-23T11:34:12;99861.69;;;14.97;71.05
60974;BME280;46846;51.528;5.076;2023-04-23T11:36:37;99859.66;;;15.00;71.63
60974;BME280;46846;51.528;5.076;2023-04-23T11:39:03;99855.06;;;15.02;70.35
60974;BME280;46846;51.528;5.076;2023-04-23T11:41:28;99850.34;;;15.06;71.65
60974;BME280;46846;51.528;5.076;2023-04-23T11:43:54;99844.78;;;15.09;71.29
60974;BME280;46846;51.528;5.076;2023-04-23T11:46:20;99832.22;;;14.97;67.31
60974;BME280;46846;51.528;5.076;2023-04-23T11:48:47;99829.84;;;14.92;68.29
60974;BME280;46846;51.528;5.076;2023-04-23T11:51:12;99824.94;;;14.99;67.90
60974;BME280;46846;51.528;5.076;2023-04-23T11:53:43;99824.53;;;15.05;68.58
60974;BME280;46846;51.528;5.076;2023-04-23T11:56:08;99823.56;;;15.06;69.56
60974;BME280;46846;51.528;5.076;2023-04-23T11:58:34;99813.50;;;15.10;69.67
60974;BME280;46846;51.528;5.076;2023-04-23T12:00:59;99810.69;;;15.11;69.52
60974;BME280;46846;51.528;5.076;2023-04-23T12:03:26;99808.78;;;15.13;69.98
60974;BME280;46846;51.528;5.076;2023-04-23T12:05:51;99794.41;;;15.14;69.77
60974;BME280;46846;51.528;5.076;2023-04-23T12:08:17;99802.34;;;15.16;70.06
60974;BME280;46846;51.528;5.076;2023-04-23T12:10:44;99799.53;;;15.17;70.35
60974;BME280;46846;51.528;5.076;2023-04-23T12:13:43;99811.97;;;15.18;69.96
60974;BME280;46846;51.528;5.076;2023-04-23T12:16:02;99792.47;;;15.16;70.59
60974;BME280;46846;51.528;5.076;2023-04-23T12:19:01;99789.69;;;15.18;69.98
60974;BME280;46846;51.528;5.076;2023-04-23T12:21:19;99790.53;;;15.18;70.34
60974;BME280;46846;51.528;5.076;2023-04-23T12:23:44;99789.69;;;15.18;70.15
60974;BME280;46846;51.528;5.076;2023-04-23T12:26:15;99776.28;;;15.18;70.11
60974;BME280;46846;51.528;5.076;2023-04-23T12:28:48;99752.38;;;15.15;69.99
60974;BME280;46846;51.528;5.076;2023-04-23T12:31:17;99773.72;;;15.16;68.89
60974;BME280;46846;51.528;5.076;2023-04-23T12:33:43;99772.00;;;15.15;68.96
60974;BME280;46846;51.528;5.076;2023-04-23T12:36:10;99769.88;;;15.21;69.35
60974;BME280;46846;51.528;5.076;2023-04-23T12:38:35;99766.31;;;15.20;69.56
60974;BME280;46846;51.528;5.076;2023-04-23T12:41:00;99756.47;;;15.21;69.24
60974;BME280;46846;51.528;5.076;2023-04-23T12:43:26;99762.66;;;15.21;69.56
60974;BME280;46846;51.528;5.076;2023-04-23T12:45:52;99757.53;;;15.18;69.85
60974;BME280;46846;51.528;5.076;2023-04-23T12:48:18;99748.28;;;15.22;69.54
60974;BME280;46846;51.528;5.076;2023-04-23T12:50:44;99746.25;;;15.26;69.84
60974;BME280;46846;51.528;5.076;2023-04-23T12:53:10;99745.28;;;15.27;69.62
60974;BME280;46846;51.528;5.076;2023-04-23T12:55:35;99746.78;;;15.31;69.89
60974;BME280;46846;51.528;5.076;2023-04-23T12:58:02;99736.81;;;15.33;69.69